sensor_id;sensor_type;location;lat;lon;timestamp;temperature;humidity
11818;DHT22;5966;52.402;5.322;2022-11-15T00:01:08;7.20;99.90
11818;DHT22;5966;52.402;5.322;2022-11-15T00:03:36;7.20;99.90
11818;DHT22;5966;52.402;5.322;2022-11-15T00:06:04;7.20;99.90
11818;DHT22;5966;52.402;5.322;2022-11-15T00:08:33;7.20;99.90
11818;DHT22;5966;52.402;5.322;2022-11-15T00:11:02;7.30;99.90
11818;DHT22;5966;52.402;5.322;2022-11-15T00:13:30;7.20;99.90
11818;DHT22;5966;52.402;5.322;2022-11-15T00:16:01;7.20;99.90
11818;DHT22;5966;52.402;5.322;2022-11-15T00:18:30;7.10;99.90
11818;DHT22;5966;52.402;5.322;2022-11-15T00:21:03;7.20;99.90
11818;DHT22;5966;52.402;5.322;2022-11-15T00:23:32;7.20;99.90
11818;DHT22;5966;52.402;5.322;2022-11-15T00:26:01;7.20;99.90
11818;DHT22;5966;52.402;5.322;2022-11-15T00:28:29;7.20;99.90
11818;DHT22;5966;52.402;5.322;2022-11-15T00:31:01;7.20;99.90
11818;DHT22;5966;52.402;5.322;2022-11-15T00:33:30;7.20;99.90
11818;DHT22;5966;52.402;5.322;2022-11-15T00:36:04;7.20;99.90
11818;DHT22;5966;52.402;5.322;2022-11-15T00:38:32;7.20;99.90
11818;DHT22;5966;52.402;5.322;2022-11-15T00:41:01;7.20;99.90
11818;DHT22;5966;52.402;5.322;2022-11-15T00:43:35;7.20;99.90
11818;DHT22;5966;52.402;5.322;2022-11-15T00:46:05;7.20;99.90
11818;DHT22;5966;52.402;5.322;2022-11-15T00:48:34;7.30;99.90
11818;DHT22;5966;52.402;5.322;2022-11-15T00:51:02;7.20;99.90
11818;DHT22;5966;52.402;5.322;2022-11-15T00:53:30;7.20;99.90
11818;DHT22;5966;52.402;5.322;2022-11-15T00:55:58;7.30;99.90
11818;DHT22;5966;52.402;5.322;2022-11-15T00:58:26;7.30;99.90
11818;DHT22;5966;52.402;5.322;2022-11-15T01:00:54;7.30;99.90
11818;DHT22;5966;52.402;5.322;2022-11-15T01:03:23;7.30;99.90
11818;DHT22;5966;52.402;5.322;2022-11-15T01:05:51;7.30;99.90
11818;DHT22;5966;52.402;5.322;2022-11-15T01:08:19;7.30;99.90
11818;DHT22;5966;52.402;5.322;2022-11-15T01:10:47;7.30;99.90
11818;DHT22;5966;52.402;5.322;2022-11-15T01:13:14;7.40;99.90
11818;DHT22;5966;52.402;5.322;2022-11-15T01:15:42;7.30;99.90
11818;DHT22;5966;52.402;5.322;2022-11-15T01:18:10;7.30;99.90
11818;DHT22;5966;52.402;5.322;2022-11-15T01:20:41;7.40;99.90
11818;DHT22;5966;52.402;5.322;2022-11-15T01:23:09;7.30;99.90
11818;DHT22;5966;52.402;5.322;2022-11-15T01:25:37;7.40;99.90
11818;DHT22;5966;52.402;5.322;2022-11-15T01:28:05;7.40;99.90
11818;DHT22;5966;52.402;5.322;2022-11-15T01:30:33;7.40;99.90
11818;DHT22;5966;52.402;5.322;2022-11-15T01:33:03;7.40;99.90
11818;DHT22;5966;52.402;5.322;2022-11-15T01:35:31;7.40;99.90
11818;DHT22;5966;52.402;5.322;2022-11-15T01:38:00;7.50;99.90
11818;DHT22;5966;52.402;5.322;2022-11-15T01:40:28;7.50;99.90
11818;DHT22;5966;52.402;5.322;2022-11-15T01:42:55;7.50;99.90
11818;DHT22;5966;52.402;5.322;2022-11-15T01:45:23;7.50;99.90
11818;DHT22;5966;52.402;5.322;2022-11-15T01:47:52;7.50;99.90
11818;DHT22;5966;52.402;5.322;2022-11-15T01:50:25;7.60;99.90
11818;DHT22;5966;52.402;5.322;2022-11-15T01:52:54;7.60;99.90
11818;DHT22;5966;52.402;5.322;2022-11-15T01:55:26;7.60;99.90
11818;DHT22;5966;52.402;5.322;2022-11-15T01:57:56;7.60;99.90
11818;DHT22;5966;52.402;5.322;2022-11-15T02:00:25;7.60;99.90
11818;DHT22;5966;52.402;5.322;2022-11-15T02:02:53;7.60;99.90
11818;DHT22;5966;52.402;5.322;2022-11-15T02:05:21;7.70;99.90
11818;DHT22;5966;52.402;5.322;2022-11-15T02:07:49;7.70;99.90
11818;DHT22;5966;52.402;5.322;2022-11-15T02:10:19;7.70;99.90
11818;DHT22;5966;52.402;5.322;2022-11-15T02:12:49;7.70;99.90
11818;DHT22;5966;52.402;5.322;2022-11-15T02:15:18;7.70;99.90
11818;DHT22;5966;52.402;5.322;2022-11-15T02:18:04;7.70;99.90
11818;DHT22;5966;52.402;5.322;2022-11-15T02:20:43;7.80;99.90
11818;DHT22;5966;52.402;5.322;2022-11-15T02:26:27;7.80;99.90
11818;DHT22;5966;52.402;5.322;2022-11-15T02:29:03;7.80;99.90
11818;DHT22;5966;52.402;5.322;2022-11-15T02:31:39;7.80;99.90
11818;DHT22;5966;52.402;5.322;2022-11-15T02:34:16;7.90;99.90
11818;DHT22;5966;52.402;5.322;2022-11-15T02:36:53;7.90;99.90
11818;DHT22;5966;52.402;5.322;2022-11-15T02:39:27;7.90;99.90
11818;DHT22;5966;52.402;5.322;2022-11-15T02:42:00;7.90;99.90
11818;DHT22;5966;52.402;5.322;2022-11-15T02:44:33;7.90;99.90
11818;DHT22;5966;52.402;5.322;2022-11-15T02:47:04;8.00;99.90
11818;DHT22;5966;52.402;5.322;2022-11-15T02:49:46;8.00;99.90
11818;DHT22;5966;52.402;5.322;2022-11-15T02:52:15;8.00;99.90
11818;DHT22;5966;52.402;5.322;2022-11-15T02:54:53;8.00;99.90
11818;DHT22;5966;52.402;5.322;2022-11-15T02:57:29;8.00;99.90
11818;DHT22;5966;52.402;5.322;2022-11-15T03:00:05;8.10;99.90
11818;DHT22;5966;52.402;5.322;2022-11-15T03:02:57;8.10;99.90
11818;DHT22;5966;52.402;5.322;2022-11-15T03:05:35;8.10;99.90
11818;DHT22;5966;52.402;5.322;2022-11-15T03:08:08;8.20;99.90
11818;DHT22;5966;52.402;5.322;2022-11-15T03:10:44;8.20;99.90
11818;DHT22;5966;52.402;5.322;2022-11-15T03:13:21;8.20;99.90
11818;DHT22;5966;52.402;5.322;2022-11-15T03:15:55;8.30;99.90
11818;DHT22;5966;52.402;5.322;2022-11-15T03:18:30;8.30;99.90
11818;DHT22;5966;52.402;5.322;2022-11-15T03:21:01;8.40;99.90
11818;DHT22;5966;52.402;5.322;2022-11-15T03:23:31;8.40;99.90
11818;DHT22;5966;52.402;5.322;2022-11-15T03:26:00;8.40;99.90
11818;DHT22;5966;52.402;5.322;2022-11-15T03:28:33;8.40;99.90
11818;DHT22;5966;52.402;5.322;2022-11-15T03:31:02;8.50;99.90
11818;DHT22;5966;52.402;5.322;2022-11-15T03:33:53;8.50;99.90
11818;DHT22;5966;52.402;5.322;2022-11-15T03:36:23;8.50;99.90
11818;DHT22;5966;52.402;5.322;2022-11-15T03:38:54;8.60;99.90
11818;DHT22;5966;52.402;5.322;2022-11-15T03:41:27;8.60;99.90
11818;DHT22;5966;52.402;5.322;2022-11-15T03:44:02;8.60;99.90
11818;DHT22;5966;52.402;5.322;2022-11-15T03:46:35;8.70;99.90
11818;DHT22;5966;52.402;5.322;2022-11-15T03:49:11;8.70;99.90
11818;DHT22;5966;52.402;5.322;2022-11-15T03:51:41;8.70;99.90
11818;DHT22;5966;52.402;5.322;2022-11-15T03:54:10;8.80;99.90
11818;DHT22;5966;52.402;5.322;2022-11-15T03:56:39;8.80;99.90
11818;DHT22;5966;52.402;5.322;2022-11-15T03:59:07;8.80;99.90
11818;DHT22;5966;52.402;5.322;2022-11-15T04:01:35;8.90;99.90
11818;DHT22;5966;52.402;5.322;2022-11-15T04:04:03;8.90;99.90
11818;DHT22;5966;52.402;5.322;2022-11-15T04:06:32;8.90;99.90
11818;DHT22;5966;52.402;5.322;2022-11-15T04:09:00;8.90;99.90
11818;DHT22;5966;52.402;5.322;2022-11-15T04:11:28;9.00;99.90
11818;DHT22;5966;52.402;5.322;2022-11-15T04:13:56;9.00;99.90
11818;DHT22;5966;52.402;5.322;2022-11-15T04:16:24;9.00;99.90
11818;DHT22;5966;52.402;5.322;2022-11-15T04:18:51;9.00;99.90
11818;DHT22;5966;52.402;5.322;2022-11-15T04:21:35;9.10;99.90
11818;DHT22;5966;52.402;5.322;2022-11-15T04:24:20;9.10;99.90
11818;DHT22;5966;52.402;5.322;2022-11-15T04:26:48;9.10;99.90
11818;DHT22;5966;52.402;5.322;2022-11-15T04:29:16;9.10;99.90
11818;DHT22;5966;52.402;5.322;2022-11-15T04:32:02;9.20;99.90
11818;DHT22;5966;52.402;5.322;2022-11-15T04:34:30;9.20;99.90
11818;DHT22;5966;52.402;5.322;2022-11-15T04:36:59;9.20;99.90
11818;DHT22;5966;52.402;5.322;2022-11-15T04:39:38;9.20;99.90
11818;DHT22;5966;52.402;5.322;2022-11-15T04:42:07;9.30;99.90
11818;DHT22;5966;52.402;5.322;2022-11-15T04:44:35;9.30;99.90
11818;DHT22;5966;52.402;5.322;2022-11-15T04:47:03;9.30;99.90
11818;DHT22;5966;52.402;5.322;2022-11-15T04:49:31;9.40;99.90
11818;DHT22;5966;52.402;5.322;2022-11-15T04:52:00;9.40;99.90
11818;DHT22;5966;52.402;5.322;2022-11-15T04:54:28;9.40;99.90
11818;DHT22;5966;52.402;5.322;2022-11-15T04:56:56;9.40;99.90
11818;DHT22;5966;52.402;5.322;2022-11-15T04:59:23;9.50;99.90
11818;DHT22;5966;52.402;5.322;2022-11-15T05:01:51;9.50;99.90
11818;DHT22;5966;52.402;5.322;2022-11-15T05:04:19;9.50;99.90
11818;DHT22;5966;52.402;5.322;2022-11-15T05:06:48;9.50;99.90
11818;DHT22;5966;52.402;5.322;2022-11-15T05:09:18;9.50;99.90
11818;DHT22;5966;52.402;5.322;2022-11-15T05:11:46;9.60;99.90
11818;DHT22;5966;52.402;5.322;2022-11-15T05:14:14;9.60;99.90
11818;DHT22;5966;52.402;5.322;2022-11-15T05:16:42;9.60;99.90
11818;DHT22;5966;52.402;5.322;2022-11-15T05:19:10;9.60;99.90
11818;DHT22;5966;52.402;5.322;2022-11-15T05:21:38;9.60;99.90
11818;DHT22;5966;52.402;5.322;2022-11-15T05:24:06;9.60;99.90
11818;DHT22;5966;52.402;5.322;2022-11-15T05:26:35;9.70;99.90
11818;DHT22;5966;52.402;5.322;2022-11-15T05:29:03;9.70;99.90
11818;DHT22;5966;52.402;5.322;2022-11-15T05:31:31;9.70;99.90
11818;DHT22;5966;52.402;5.322;2022-11-15T05:34:00;9.70;99.90
11818;DHT22;5966;52.402;5.322;2022-11-15T05:36:31;9.70;99.90
11818;DHT22;5966;52.402;5.322;2022-11-15T05:39:01;9.70;99.90
11818;DHT22;5966;52.402;5.322;2022-11-15T05:41:32;9.80;99.90
11818;DHT22;5966;52.402;5.322;2022-11-15T05:44:02;9.80;99.90
11818;DHT22;5966;52.402;5.322;2022-11-15T05:46:33;9.80;99.90
11818;DHT22;5966;52.402;5.322;2022-11-15T05:49:01;9.80;99.90
11818;DHT22;5966;52.402;5.322;2022-11-15T05:51:30;9.80;99.90
11818;DHT22;5966;52.402;5.322;2022-11-15T05:53:58;9.90;99.90
11818;DHT22;5966;52.402;5.322;2022-11-15T05:56:26;9.90;99.90
11818;DHT22;5966;52.402;5.322;2022-11-15T05:58:55;9.90;99.90
11818;DHT22;5966;52.402;5.322;2022-11-15T06:01:27;9.90;99.90
11818;DHT22;5966;52.402;5.322;2022-11-15T06:03:55;10.00;99.90
11818;DHT22;5966;52.402;5.322;2022-11-15T06:06:23;10.00;99.90
11818;DHT22;5966;52.402;5.322;2022-11-15T06:08:51;10.00;99.90
11818;DHT22;5966;52.402;5.322;2022-11-15T06:11:19;10.00;99.90
11818;DHT22;5966;52.402;5.322;2022-11-15T06:13:47;10.00;99.90
11818;DHT22;5966;52.402;5.322;2022-11-15T06:16:15;10.00;99.90
11818;DHT22;5966;52.402;5.322;2022-11-15T06:18:44;10.10;99.90
11818;DHT22;5966;52.402;5.322;2022-11-15T06:21:11;10.10;99.90
11818;DHT22;5966;52.402;5.322;2022-11-15T06:23:39;10.10;99.90
11818;DHT22;5966;52.402;5.322;2022-11-15T06:26:07;10.10;99.90
11818;DHT22;5966;52.402;5.322;2022-11-15T06:28:35;10.10;99.90
11818;DHT22;5966;52.402;5.322;2022-11-15T06:31:04;10.10;99.90
11818;DHT22;5966;52.402;5.322;2022-11-15T06:33:32;10.10;99.90
11818;DHT22;5966;52.402;5.322;2022-11-15T06:36:02;10.20;99.90
11818;DHT22;5966;52.402;5.322;2022-11-15T06:38:31;10.20;99.90
11818;DHT22;5966;52.402;5.322;2022-11-15T06:41:01;10.20;99.90
11818;DHT22;5966;52.402;5.322;2022-11-15T06:43:29;10.20;99.90
11818;DHT22;5966;52.402;5.322;2022-11-15T06:45:58;10.20;99.90
11818;DHT22;5966;52.402;5.322;2022-11-15T06:48:26;10.20;99.90
11818;DHT22;5966;52.402;5.322;2022-11-15T06:50:55;10.20;99.90
11818;DHT22;5966;52.402;5.322;2022-11-15T06:53:26;10.20;99.90
11818;DHT22;5966;52.402;5.322;2022-11-15T06:55:58;10.20;99.90
11818;DHT22;5966;52.402;5.322;2022-11-15T06:58:27;10.20;99.90
11818;DHT22;5966;52.402;5.322;2022-11-15T07:00:58;10.30;99.90
11818;DHT22;5966;52.402;5.322;2022-11-15T07:03:26;10.30;99.90
11818;DHT22;5966;52.402;5.322;2022-11-15T07:05:56;10.30;99.90
11818;DHT22;5966;52.402;5.322;2022-11-15T07:08:34;10.30;99.90
11818;DHT22;5966;52.402;5.322;2022-11-15T07:11:03;10.30;99.90
11818;DHT22;5966;52.402;5.322;2022-11-15T07:13:32;10.30;99.90
11818;DHT22;5966;52.402;5.322;2022-11-15T07:16:02;10.30;99.90
11818;DHT22;5966;52.402;5.322;2022-11-15T07:18:30;10.30;99.90
11818;DHT22;5966;52.402;5.322;2022-11-15T07:21:01;10.30;99.90
11818;DHT22;5966;52.402;5.322;2022-11-15T07:23:29;10.30;99.90
11818;DHT22;5966;52.402;5.322;2022-11-15T07:26:00;10.30;99.90
11818;DHT22;5966;52.402;5.322;2022-11-15T07:28:28;10.30;99.90
11818;DHT22;5966;52.402;5.322;2022-11-15T07:30:55;10.30;99.90
11818;DHT22;5966;52.402;5.322;2022-11-15T07:33:23;10.30;99.90
11818;DHT22;5966;52.402;5.322;2022-11-15T07:35:51;10.30;99.90
11818;DHT22;5966;52.402;5.322;2022-11-15T07:38:19;10.40;99.90
11818;DHT22;5966;52.402;5.322;2022-11-15T07:40:55;10.40;99.90
11818;DHT22;5966;52.402;5.322;2022-11-15T07:43:24;10.40;99.90
11818;DHT22;5966;52.402;5.322;2022-11-15T07:45:54;10.40;99.90
11818;DHT22;5966;52.402;5.322;2022-11-15T07:48:25;10.40;99.90
11818;DHT22;5966;52.402;5.322;2022-11-15T07:51:11;10.50;99.90
11818;DHT22;5966;52.402;5.322;2022-11-15T07:53:40;10.50;99.90
11818;DHT22;5966;52.402;5.322;2022-11-15T07:56:08;10.50;99.90
11818;DHT22;5966;52.402;5.322;2022-11-15T07:58:38;10.50;99.90
11818;DHT22;5966;52.402;5.322;2022-11-15T08:01:06;10.50;99.90
11818;DHT22;5966;52.402;5.322;2022-11-15T08:03:36;10.50;99.90
11818;DHT22;5966;52.402;5.322;2022-11-15T08:06:04;10.50;99.90
11818;DHT22;5966;52.402;5.322;2022-11-15T08:08:34;10.50;99.90
11818;DHT22;5966;52.402;5.322;2022-11-15T08:11:04;10.50;99.90
11818;DHT22;5966;52.402;5.322;2022-11-15T08:13:38;10.50;99.90
11818;DHT22;5966;52.402;5.322;2022-11-15T08:16:08;10.50;99.90
11818;DHT22;5966;52.402;5.322;2022-11-15T08:18:36;10.50;99.90
11818;DHT22;5966;52.402;5.322;2022-11-15T08:21:05;10.50;99.90
11818;DHT22;5966;52.402;5.322;2022-11-15T08:23:33;10.60;99.90
11818;DHT22;5966;52.402;5.322;2022-11-15T08:26:02;10.60;99.90
11818;DHT22;5966;52.402;5.322;2022-11-15T08:28:32;10.50;99.90
11818;DHT22;5966;52.402;5.322;2022-11-15T08:31:03;10.50;99.90
11818;DHT22;5966;52.402;5.322;2022-11-15T08:33:32;10.50;99.90
11818;DHT22;5966;52.402;5.322;2022-11-15T08:36:01;10.50;99.90
11818;DHT22;5966;52.402;5.322;2022-11-15T08:38:29;10.50;99.90
11818;DHT22;5966;52.402;5.322;2022-11-15T08:41:01;10.50;99.90
11818;DHT22;5966;52.402;5.322;2022-11-15T08:43:30;10.50;99.90
11818;DHT22;5966;52.402;5.322;2022-11-15T08:45:58;10.50;99.90
11818;DHT22;5966;52.402;5.322;2022-11-15T08:48:28;10.60;99.90
11818;DHT22;5966;52.402;5.322;2022-11-15T08:50:57;10.60;99.90
11818;DHT22;5966;52.402;5.322;2022-11-15T08:53:25;10.60;99.90
11818;DHT22;5966;52.402;5.322;2022-11-15T08:55:53;10.70;99.90
11818;DHT22;5966;52.402;5.322;2022-11-15T08:58:20;10.70;99.90
11818;DHT22;5966;52.402;5.322;2022-11-15T09:00:48;10.80;99.90
11818;DHT22;5966;52.402;5.322;2022-11-15T09:03:17;10.80;99.90
11818;DHT22;5966;52.402;5.322;2022-11-15T09:05:46;10.80;99.90
11818;DHT22;5966;52.402;5.322;2022-11-15T09:08:14;10.80;99.90
11818;DHT22;5966;52.402;5.322;2022-11-15T09:11:03;10.80;99.90
11818;DHT22;5966;52.402;5.322;2022-11-15T09:13:31;10.80;99.90
11818;DHT22;5966;52.402;5.322;2022-11-15T09:15:59;10.80;99.90
11818;DHT22;5966;52.402;5.322;2022-11-15T09:18:27;10.80;99.90
11818;DHT22;5966;52.402;5.322;2022-11-15T09:20:57;10.80;99.90
11818;DHT22;5966;52.402;5.322;2022-11-15T09:23:26;10.80;99.90
11818;DHT22;5966;52.402;5.322;2022-11-15T09:25:58;10.90;99.90
11818;DHT22;5966;52.402;5.322;2022-11-15T09:28:27;10.90;99.90
11818;DHT22;5966;52.402;5.322;2022-11-15T09:30:56;11.00;99.90
11818;DHT22;5966;52.402;5.322;2022-11-15T09:33:26;11.00;99.90
11818;DHT22;5966;52.402;5.322;2022-11-15T09:35:54;11.00;99.90
11818;DHT22;5966;52.402;5.322;2022-11-15T09:38:23;11.10;99.90
11818;DHT22;5966;52.402;5.322;2022-11-15T09:40:58;11.10;99.90
11818;DHT22;5966;52.402;5.322;2022-11-15T09:43:40;11.20;99.90
11818;DHT22;5966;52.402;5.322;2022-11-15T09:46:15;11.30;99.90
11818;DHT22;5966;52.402;5.322;2022-11-15T09:48:49;11.40;99.90
11818;DHT22;5966;52.402;5.322;2022-11-15T09:51:25;11.40;99.90
11818;DHT22;5966;52.402;5.322;2022-11-15T09:54:04;11.40;99.90
11818;DHT22;5966;52.402;5.322;2022-11-15T09:56:53;11.40;99.90
11818;DHT22;5966;52.402;5.322;2022-11-15T09:59:36;11.40;99.90
11818;DHT22;5966;52.402;5.322;2022-11-15T10:02:18;11.50;99.90
11818;DHT22;5966;52.402;5.322;2022-11-15T10:04:48;11.50;99.90
11818;DHT22;5966;52.402;5.322;2022-11-15T10:07:20;11.50;99.90
11818;DHT22;5966;52.402;5.322;2022-11-15T10:09:55;11.50;99.90
11818;DHT22;5966;52.402;5.322;2022-11-15T10:12:25;11.60;99.90
11818;DHT22;5966;52.402;5.322;2022-11-15T10:15:00;11.60;99.90
11818;DHT22;5966;52.402;5.322;2022-11-15T10:17:47;11.60;99.90
11818;DHT22;5966;52.402;5.322;2022-11-15T10:20:24;11.60;99.90
11818;DHT22;5966;52.402;5.322;2022-11-15T10:22:54;11.60;99.90
11818;DHT22;5966;52.402;5.322;2022-11-15T10:25:26;11.70;99.90
11818;DHT22;5966;52.402;5.322;2022-11-15T10:27:57;11.70;99.90
11818;DHT22;5966;52.402;5.322;2022-11-15T10:30:32;11.70;99.90
11818;DHT22;5966;52.402;5.322;2022-11-15T10:33:16;11.70;99.90
11818;DHT22;5966;52.402;5.322;2022-11-15T10:35:45;11.70;99.90
11818;DHT22;5966;52.402;5.322;2022-11-15T10:38:13;11.70;99.90
11818;DHT22;5966;52.402;5.322;2022-11-15T10:40:42;11.70;99.90
11818;DHT22;5966;52.402;5.322;2022-11-15T10:43:16;11.70;99.90
11818;DHT22;5966;52.402;5.322;2022-11-15T10:45:45;11.70;99.90
11818;DHT22;5966;52.402;5.322;2022-11-15T10:48:45;11.70;99.90
11818;DHT22;5966;52.402;5.322;2022-11-15T10:51:20;11.70;99.90
11818;DHT22;5966;52.402;5.322;2022-11-15T10:53:49;11.60;99.90
11818;DHT22;5966;52.402;5.322;2022-11-15T10:56:21;11.60;99.90
11818;DHT22;5966;52.402;5.322;2022-11-15T10:58:52;11.70;99.90
11818;DHT22;5966;52.402;5.322;2022-11-15T11:01:23;11.70;99.90
11818;DHT22;5966;52.402;5.322;2022-11-15T11:03:59;11.70;99.90
11818;DHT22;5966;52.402;5.322;2022-11-15T11:06:27;11.80;99.90
11818;DHT22;5966;52.402;5.322;2022-11-15T11:08:57;11.80;99.90
11818;DHT22;5966;52.402;5.322;2022-11-15T11:11:44;11.80;99.90
11818;DHT22;5966;52.402;5.322;2022-11-15T11:14:13;11.90;99.90
11818;DHT22;5966;52.402;5.322;2022-11-15T11:16:48;11.90;99.90
11818;DHT22;5966;52.402;5.322;2022-11-15T11:19:41;11.90;99.90
11818;DHT22;5966;52.402;5.322;2022-11-15T11:22:17;11.90;99.90
11818;DHT22;5966;52.402;5.322;2022-11-15T11:24:55;11.90;99.90
11818;DHT22;5966;52.402;5.322;2022-11-15T11:27:36;12.00;99.90
11818;DHT22;5966;52.402;5.322;2022-11-15T11:30:10;12.00;99.90
11818;DHT22;5966;52.402;5.322;2022-11-15T11:32:49;12.00;99.90
11818;DHT22;5966;52.402;5.322;2022-11-15T11:35:26;12.00;99.90
11818;DHT22;5966;52.402;5.322;2022-11-15T11:38:09;12.10;99.90
11818;DHT22;5966;52.402;5.322;2022-11-15T11:40:44;12.10;99.90
11818;DHT22;5966;52.402;5.322;2022-11-15T11:43:25;12.10;99.90
11818;DHT22;5966;52.402;5.322;2022-11-15T11:46:15;12.20;99.90
11818;DHT22;5966;52.402;5.322;2022-11-15T11:48:50;12.20;99.90
11818;DHT22;5966;52.402;5.322;2022-11-15T11:51:23;12.20;99.90
11818;DHT22;5966;52.402;5.322;2022-11-15T11:53:55;12.20;99.90
11818;DHT22;5966;52.402;5.322;2022-11-15T11:56:27;12.20;99.90
11818;DHT22;5966;52.402;5.322;2022-11-15T11:59:02;12.20;99.90
11818;DHT22;5966;52.402;5.322;2022-11-15T12:01:35;12.20;99.90
11818;DHT22;5966;52.402;5.322;2022-11-15T12:04:10;12.10;99.90
11818;DHT22;5966;52.402;5.322;2022-11-15T12:06:45;12.10;99.90
11818;DHT22;5966;52.402;5.322;2022-11-15T12:09:17;12.10;99.90
11818;DHT22;5966;52.402;5.322;2022-11-15T12:11:52;12.10;99.90
11818;DHT22;5966;52.402;5.322;2022-11-15T12:14:32;12.10;99.90
11818;DHT22;5966;52.402;5.322;2022-11-15T12:17:03;12.20;99.90
11818;DHT22;5966;52.402;5.322;2022-11-15T12:19:31;12.20;99.90
11818;DHT22;5966;52.402;5.322;2022-11-15T12:22:03;12.20;99.90
11818;DHT22;5966;52.402;5.322;2022-11-15T12:24:37;12.20;99.90
11818;DHT22;5966;52.402;5.322;2022-11-15T12:27:15;12.20;99.90
11818;DHT22;5966;52.402;5.322;2022-11-15T12:29:55;12.20;99.90
11818;DHT22;5966;52.402;5.322;2022-11-15T12:32:27;12.20;99.90
11818;DHT22;5966;52.402;5.322;2022-11-15T12:34:57;12.20;99.90
11818;DHT22;5966;52.402;5.322;2022-11-15T12:40:35;12.20;99.90
11818;DHT22;5966;52.402;5.322;2022-11-15T12:46:18;12.10;99.90
11818;DHT22;5966;52.402;5.322;2022-11-15T12:48:55;12.10;99.90
11818;DHT22;5966;52.402;5.322;2022-11-15T12:54:55;12.10;99.90
11818;DHT22;5966;52.402;5.322;2022-11-15T12:57:38;12.10;99.90
11818;DHT22;5966;52.402;5.322;2022-11-15T13:03:33;12.10;99.90
11818;DHT22;5966;52.402;5.322;2022-11-15T13:06:09;12.10;99.90
11818;DHT22;5966;52.402;5.322;2022-11-15T13:08:58;12.10;99.90
11818;DHT22;5966;52.402;5.322;2022-11-15T13:11:44;12.10;99.90
11818;DHT22;5966;52.402;5.322;2022-11-15T13:14:38;12.10;99.90
11818;DHT22;5966;52.402;5.322;2022-11-15T13:17:22;12.10;99.90
11818;DHT22;5966;52.402;5.322;2022-11-15T13:19:56;12.10;99.90
11818;DHT22;5966;52.402;5.322;2022-11-15T13:22:25;12.20;99.90
11818;DHT22;5966;52.402;5.322;2022-11-15T13:25:38;12.20;99.90
11818;DHT22;5966;52.402;5.322;2022-11-15T13:28:17;12.20;99.90
11818;DHT22;5966;52.402;5.322;2022-11-15T13:30:50;12.20;99.90
11818;DHT22;5966;52.402;5.322;2022-11-15T13:33:20;12.20;99.90
11818;DHT22;5966;52.402;5.322;2022-11-15T13:35:51;12.20;99.90
11818;DHT22;5966;52.402;5.322;2022-11-15T13:38:26;12.20;99.90
11818;DHT22;5966;52.402;5.322;2022-11-15T13:40:56;12.20;99.90
11818;DHT22;5966;52.402;5.322;2022-11-15T13:43:31;12.20;99.90
11818;DHT22;5966;52.402;5.322;2022-11-15T13:46:07;12.20;99.90
11818;DHT22;5966;52.402;5.322;2022-11-15T13:48:38;12.20;99.90
11818;DHT22;5966;52.402;5.322;2022-11-15T13:51:09;12.20;99.90
11818;DHT22;5966;52.402;5.322;2022-11-15T13:53:43;12.20;99.90
11818;DHT22;5966;52.402;5.322;2022-11-15T13:56:15;12.20;99.90
11818;DHT22;5966;52.402;5.322;2022-11-15T13:58:44;12.20;99.90
11818;DHT22;5966;52.402;5.322;2022-11-15T14:01:16;12.10;99.90
11818;DHT22;5966;52.402;5.322;2022-11-15T14:03:49;12.10;99.90
11818;DHT22;5966;52.402;5.322;2022-11-15T14:06:20;12.10;99.90
11818;DHT22;5966;52.402;5.322;2022-11-15T14:09:04;12.10;99.90
11818;DHT22;5966;52.402;5.322;2022-11-15T14:11:51;12.00;99.90
11818;DHT22;5966;52.402;5.322;2022-11-15T14:14:21;12.00;99.90
11818;DHT22;5966;52.402;5.322;2022-11-15T14:16:52;11.90;99.90
11818;DHT22;5966;52.402;5.322;2022-11-15T14:19:40;11.90;99.90
11818;DHT22;5966;52.402;5.322;2022-11-15T14:22:14;11.90;99.90
11818;DHT22;5966;52.402;5.322;2022-11-15T14:24:45;11.90;99.90
11818;DHT22;5966;52.402;5.322;2022-11-15T14:27:22;11.80;99.90
11818;DHT22;5966;52.402;5.322;2022-11-15T14:29:51;11.80;99.90
11818;DHT22;5966;52.402;5.322;2022-11-15T14:32:22;11.80;99.90
11818;DHT22;5966;52.402;5.322;2022-11-15T14:34:54;11.70;99.90
11818;DHT22;5966;52.402;5.322;2022-11-15T14:37:24;11.70;99.90
11818;DHT22;5966;52.402;5.322;2022-11-15T14:39:53;11.70;99.90
11818;DHT22;5966;52.402;5.322;2022-11-15T14:42:24;11.70;99.90
11818;DHT22;5966;52.402;5.322;2022-11-15T14:44:52;11.60;99.90
11818;DHT22;5966;52.402;5.322;2022-11-15T14:47:21;11.60;99.90
11818;DHT22;5966;52.402;5.322;2022-11-15T14:49:50;11.60;99.90
11818;DHT22;5966;52.402;5.322;2022-11-15T14:52:26;11.60;99.90
11818;DHT22;5966;52.402;5.322;2022-11-15T14:54:59;11.60;99.90
11818;DHT22;5966;52.402;5.322;2022-11-15T14:57:32;11.60;99.90
11818;DHT22;5966;52.402;5.322;2022-11-15T15:00:09;11.70;99.90
11818;DHT22;5966;52.402;5.322;2022-11-15T15:02:46;11.70;99.90
11818;DHT22;5966;52.402;5.322;2022-11-15T15:05:16;11.70;99.90
11818;DHT22;5966;52.402;5.322;2022-11-15T15:07:46;11.70;99.90
11818;DHT22;5966;52.402;5.322;2022-11-15T15:10:16;11.70;99.90
11818;DHT22;5966;52.402;5.322;2022-11-15T15:13:08;11.70;99.90
11818;DHT22;5966;52.402;5.322;2022-11-15T15:15:38;11.80;99.90
11818;DHT22;5966;52.402;5.322;2022-11-15T15:18:08;11.80;99.90
11818;DHT22;5966;52.402;5.322;2022-11-15T15:20:39;11.80;99.90
11818;DHT22;5966;52.402;5.322;2022-11-15T15:23:17;11.80;99.90
11818;DHT22;5966;52.402;5.322;2022-11-15T15:25:56;11.80;99.90
11818;DHT22;5966;52.402;5.322;2022-11-15T15:28:29;11.80;99.90
11818;DHT22;5966;52.402;5.322;2022-11-15T15:31:02;11.80;99.90
11818;DHT22;5966;52.402;5.322;2022-11-15T15:33:34;11.80;99.90
11818;DHT22;5966;52.402;5.322;2022-11-15T15:36:02;11.80;99.90
11818;DHT22;5966;52.402;5.322;2022-11-15T15:38:30;11.80;99.90
11818;DHT22;5966;52.402;5.322;2022-11-15T15:40:59;11.80;99.90
11818;DHT22;5966;52.402;5.322;2022-11-15T15:43:30;11.80;99.90
11818;DHT22;5966;52.402;5.322;2022-11-15T15:45:59;11.80;99.90
11818;DHT22;5966;52.402;5.322;2022-11-15T15:48:27;11.80;99.90
11818;DHT22;5966;52.402;5.322;2022-11-15T15:50:57;11.80;99.90
11818;DHT22;5966;52.402;5.322;2022-11-15T15:53:25;11.80;99.90
11818;DHT22;5966;52.402;5.322;2022-11-15T15:55:54;11.80;99.90
11818;DHT22;5966;52.402;5.322;2022-11-15T15:58:22;11.80;99.90
11818;DHT22;5966;52.402;5.322;2022-11-15T16:00:54;11.80;99.90
11818;DHT22;5966;52.402;5.322;2022-11-15T16:03:23;11.80;99.90
11818;DHT22;5966;52.402;5.322;2022-11-15T16:05:51;11.90;99.90
11818;DHT22;5966;52.402;5.322;2022-11-15T16:08:22;11.90;99.90
11818;DHT22;5966;52.402;5.322;2022-11-15T16:10:53;11.90;99.90
11818;DHT22;5966;52.402;5.322;2022-11-15T16:13:22;11.90;99.90
11818;DHT22;5966;52.402;5.322;2022-11-15T16:15:53;11.90;99.90
11818;DHT22;5966;52.402;5.322;2022-11-15T16:18:23;12.00;99.90
11818;DHT22;5966;52.402;5.322;2022-11-15T16:20:51;12.00;99.90
11818;DHT22;5966;52.402;5.322;2022-11-15T16:23:25;12.00;99.90
11818;DHT22;5966;52.402;5.322;2022-11-15T16:25:54;12.00;99.90
11818;DHT22;5966;52.402;5.322;2022-11-15T16:28:26;12.00;99.90
11818;DHT22;5966;52.402;5.322;2022-11-15T16:31:04;12.00;99.90
11818;DHT22;5966;52.402;5.322;2022-11-15T16:33:33;12.00;99.90
11818;DHT22;5966;52.402;5.322;2022-11-15T16:36:03;12.10;99.90
11818;DHT22;5966;52.402;5.322;2022-11-15T16:38:34;12.10;99.90